sensor_id;sensor_type;location;lat;lon;timestamp;temperature;humidity
2465;DHT22;1244;54.326;10.074;2023-03-01T00:01:08;1.20;99.90
2465;DHT22;1244;54.326;10.074;2023-03-01T00:03:34;1.20;99.90
2465;DHT22;1244;54.326;10.074;2023-03-01T00:06:00;1.20;99.90
2465;DHT22;1244;54.326;10.074;2023-03-01T00:08:27;1.10;99.90
2465;DHT22;1244;54.326;10.074;2023-03-01T00:13:39;1.00;99.90
2465;DHT22;1244;54.326;10.074;2023-03-01T00:16:11;0.90;99.90
2465;DHT22;1244;54.326;10.074;2023-03-01T00:18:37;0.90;99.90
2465;DHT22;1244;54.326;10.074;2023-03-01T00:21:03;1.00;99.90
2465;DHT22;1244;54.326;10.074;2023-03-01T00:23:28;0.90;99.90
2465;DHT22;1244;54.326;10.074;2023-03-01T00:25:54;0.90;99.90
2465;DHT22;1244;54.326;10.074;2023-03-01T00:28:20;0.80;99.90
2465;DHT22;1244;54.326;10.074;2023-03-01T00:30:46;1.10;99.90
2465;DHT22;1244;54.326;10.074;2023-03-01T00:33:12;1.10;99.90
2465;DHT22;1244;54.326;10.074;2023-03-01T00:35:38;0.90;99.90
2465;DHT22;1244;54.326;10.074;2023-03-01T00:38:04;0.90;99.90
2465;DHT22;1244;54.326;10.074;2023-03-01T00:40:32;1.00;99.90
2465;DHT22;1244;54.326;10.074;2023-03-01T00:42:58;1.00;99.90
2465;DHT22;1244;54.326;10.074;2023-03-01T00:45:24;1.10;99.90
2465;DHT22;1244;54.326;10.074;2023-03-01T00:47:50;0.80;99.90
2465;DHT22;1244;54.326;10.074;2023-03-01T00:50:16;0.80;99.90
2465;DHT22;1244;54.326;10.074;2023-03-01T00:52:42;1.00;99.90
2465;DHT22;1244;54.326;10.074;2023-03-01T00:55:07;0.70;99.90
2465;DHT22;1244;54.326;10.074;2023-03-01T00:57:33;0.80;99.90
2465;DHT22;1244;54.326;10.074;2023-03-01T00:59:59;0.90;99.90
2465;DHT22;1244;54.326;10.074;2023-03-01T01:02:25;0.90;99.90
2465;DHT22;1244;54.326;10.074;2023-03-01T01:04:50;0.90;99.90
2465;DHT22;1244;54.326;10.074;2023-03-01T01:07:16;0.80;99.90
2465;DHT22;1244;54.326;10.074;2023-03-01T01:09:42;0.80;99.90
2465;DHT22;1244;54.326;10.074;2023-03-01T01:12:07;0.60;99.90
2465;DHT22;1244;54.326;10.074;2023-03-01T01:14:34;0.40;99.90
2465;DHT22;1244;54.326;10.074;2023-03-01T01:16:59;0.70;99.90
2465;DHT22;1244;54.326;10.074;2023-03-01T01:19:25;0.60;99.90
2465;DHT22;1244;54.326;10.074;2023-03-01T01:21:51;0.70;99.90
2465;DHT22;1244;54.326;10.074;2023-03-01T01:24:18;0.70;99.90
2465;DHT22;1244;54.326;10.074;2023-03-01T01:26:43;0.50;99.90
2465;DHT22;1244;54.326;10.074;2023-03-01T01:29:09;0.20;99.90
2465;DHT22;1244;54.326;10.074;2023-03-01T01:31:36;0.60;99.90
2465;DHT22;1244;54.326;10.074;2023-03-01T01:34:04;0.50;99.90
2465;DHT22;1244;54.326;10.074;2023-03-01T01:36:30;0.40;99.90
2465;DHT22;1244;54.326;10.074;2023-03-01T01:38:56;0.40;99.90
2465;DHT22;1244;54.326;10.074;2023-03-01T01:41:23;0.40;99.90
2465;DHT22;1244;54.326;10.074;2023-03-01T01:44:14;0.40;99.90
2465;DHT22;1244;54.326;10.074;2023-03-01T01:49:31;0.30;99.90
2465;DHT22;1244;54.326;10.074;2023-03-01T01:52:11;0.40;99.90
2465;DHT22;1244;54.326;10.074;2023-03-01T01:54:57;0.60;99.90
2465;DHT22;1244;54.326;10.074;2023-03-01T01:57:27;0.50;99.90
2465;DHT22;1244;54.326;10.074;2023-03-01T01:59:57;0.50;99.90
2465;DHT22;1244;54.326;10.074;2023-03-01T02:02:25;0.40;99.90
2465;DHT22;1244;54.326;10.074;2023-03-01T02:05:08;0.30;99.90
2465;DHT22;1244;54.326;10.074;2023-03-01T02:07:38;0.30;99.90
2465;DHT22;1244;54.326;10.074;2023-03-01T02:10:04;0.40;99.90
2465;DHT22;1244;54.326;10.074;2023-03-01T02:12:30;0.50;99.90
2465;DHT22;1244;54.326;10.074;2023-03-01T02:14:56;0.30;99.90
2465;DHT22;1244;54.326;10.074;2023-03-01T02:17:21;0.50;99.90
2465;DHT22;1244;54.326;10.074;2023-03-01T02:22:31;0.50;99.90
2465;DHT22;1244;54.326;10.074;2023-03-01T02:27:55;0.60;99.90
2465;DHT22;1244;54.326;10.074;2023-03-01T02:30:22;0.70;99.90
2465;DHT22;1244;54.326;10.074;2023-03-01T02:32:51;0.50;99.90
2465;DHT22;1244;54.326;10.074;2023-03-01T02:35:17;0.60;99.90
2465;DHT22;1244;54.326;10.074;2023-03-01T02:37:44;0.70;99.90
2465;DHT22;1244;54.326;10.074;2023-03-01T02:42:51;0.50;99.90
2465;DHT22;1244;54.326;10.074;2023-03-01T02:45:17;0.70;99.90
2465;DHT22;1244;54.326;10.074;2023-03-01T02:47:43;0.70;99.90
2465;DHT22;1244;54.326;10.074;2023-03-01T02:50:22;0.60;99.90
2465;DHT22;1244;54.326;10.074;2023-03-01T02:55:52;0.50;99.90
2465;DHT22;1244;54.326;10.074;2023-03-01T02:58:18;0.60;99.90
2465;DHT22;1244;54.326;10.074;2023-03-01T03:00:44;0.60;99.90
2465;DHT22;1244;54.326;10.074;2023-03-01T03:03:14;0.60;99.90
2465;DHT22;1244;54.326;10.074;2023-03-01T03:05:40;0.50;99.90
2465;DHT22;1244;54.326;10.074;2023-03-01T03:08:06;0.80;99.90
2465;DHT22;1244;54.326;10.074;2023-03-01T03:10:36;0.40;99.90
2465;DHT22;1244;54.326;10.074;2023-03-01T03:13:08;0.40;99.90
2465;DHT22;1244;54.326;10.074;2023-03-01T03:15:33;0.30;99.90
2465;DHT22;1244;54.326;10.074;2023-03-01T03:18:07;0.40;99.90
2465;DHT22;1244;54.326;10.074;2023-03-01T03:20:33;0.50;99.90
2465;DHT22;1244;54.326;10.074;2023-03-01T03:22:59;0.40;99.90
2465;DHT22;1244;54.326;10.074;2023-03-01T03:25:32;0.40;99.90
2465;DHT22;1244;54.326;10.074;2023-03-01T03:28:04;0.10;99.90
2465;DHT22;1244;54.326;10.074;2023-03-01T03:30:36;0.10;99.90
2465;DHT22;1244;54.326;10.074;2023-03-01T03:33:27;-0.10;99.90
2465;DHT22;1244;54.326;10.074;2023-03-01T03:36:09;0.20;99.90
2465;DHT22;1244;54.326;10.074;2023-03-01T03:38:41;0.10;99.90
2465;DHT22;1244;54.326;10.074;2023-03-01T03:41:08;0.10;99.90
2465;DHT22;1244;54.326;10.074;2023-03-01T03:43:36;0.20;99.90
2465;DHT22;1244;54.326;10.074;2023-03-01T03:46:41;0.00;99.90
2465;DHT22;1244;54.326;10.074;2023-03-01T03:49:18;-0.10;99.90
2465;DHT22;1244;54.326;10.074;2023-03-01T03:51:45;0.00;99.90
2465;DHT22;1244;54.326;10.074;2023-03-01T03:54:11;0.00;99.90
2465;DHT22;1244;54.326;10.074;2023-03-01T03:56:36;0.30;99.90
2465;DHT22;1244;54.326;10.074;2023-03-01T03:59:02;0.20;99.90
2465;DHT22;1244;54.326;10.074;2023-03-01T04:01:27;0.10;99.90
2465;DHT22;1244;54.326;10.074;2023-03-01T04:03:53;0.30;99.90
2465;DHT22;1244;54.326;10.074;2023-03-01T04:06:20;0.10;99.90
2465;DHT22;1244;54.326;10.074;2023-03-01T04:08:45;0.10;99.90
2465;DHT22;1244;54.326;10.074;2023-03-01T04:11:18;0.00;99.90
2465;DHT22;1244;54.326;10.074;2023-03-01T04:17:28;-0.10;99.90
2465;DHT22;1244;54.326;10.074;2023-03-01T04:20:05;-0.10;99.90
2465;DHT22;1244;54.326;10.074;2023-03-01T04:25:55;0.20;99.90
2465;DHT22;1244;54.326;10.074;2023-03-01T04:30:56;0.00;99.90
2465;DHT22;1244;54.326;10.074;2023-03-01T04:33:25;0.30;99.90
2465;DHT22;1244;54.326;10.074;2023-03-01T04:36:41;0.00;99.90
2465;DHT22;1244;54.326;10.074;2023-03-01T04:42:57;-0.10;99.90
2465;DHT22;1244;54.326;10.074;2023-03-01T04:46:17;-0.30;99.90
2465;DHT22;1244;54.326;10.074;2023-03-01T04:59:40;-0.30;99.90
2465;DHT22;1244;54.326;10.074;2023-03-01T05:05:37;0.00;99.90
2465;DHT22;1244;54.326;10.074;2023-03-01T05:08:17;0.00;99.90
2465;DHT22;1244;54.326;10.074;2023-03-01T05:10:50;-0.20;99.90
2465;DHT22;1244;54.326;10.074;2023-03-01T05:13:17;-0.20;99.90
2465;DHT22;1244;54.326;10.074;2023-03-01T05:15:54;0.00;99.90
2465;DHT22;1244;54.326;10.074;2023-03-01T05:18:21;-0.20;99.90
2465;DHT22;1244;54.326;10.074;2023-03-01T05:20:47;0.10;99.90
2465;DHT22;1244;54.326;10.074;2023-03-01T05:23:18;-0.20;99.90
2465;DHT22;1244;54.326;10.074;2023-03-01T05:26:27;-0.30;99.90
2465;DHT22;1244;54.326;10.074;2023-03-01T05:28:58;-0.10;99.90
2465;DHT22;1244;54.326;10.074;2023-03-01T05:31:27;-0.10;99.90
2465;DHT22;1244;54.326;10.074;2023-03-01T05:34:14;-0.10;99.90
2465;DHT22;1244;54.326;10.074;2023-03-01T05:36:48;-0.10;99.90
2465;DHT22;1244;54.326;10.074;2023-03-01T05:42:57;-0.20;99.90
2465;DHT22;1244;54.326;10.074;2023-03-01T05:45:24;-0.20;99.90
2465;DHT22;1244;54.326;10.074;2023-03-01T05:48:10;-0.20;99.90
2465;DHT22;1244;54.326;10.074;2023-03-01T05:50:59;-0.10;99.90
2465;DHT22;1244;54.326;10.074;2023-03-01T05:53:25;-0.20;99.90
2465;DHT22;1244;54.326;10.074;2023-03-01T05:55:51;0.00;99.90
2465;DHT22;1244;54.326;10.074;2023-03-01T05:58:19;0.00;99.90
2465;DHT22;1244;54.326;10.074;2023-03-01T06:00:47;-0.10;99.90
2465;DHT22;1244;54.326;10.074;2023-03-01T06:03:15;-0.20;99.90
2465;DHT22;1244;54.326;10.074;2023-03-01T06:05:41;0.00;99.90
2465;DHT22;1244;54.326;10.074;2023-03-01T06:08:26;-0.30;99.90
2465;DHT22;1244;54.326;10.074;2023-03-01T06:14:08;-0.40;99.90
2465;DHT22;1244;54.326;10.074;2023-03-01T06:16:35;-0.30;99.90
2465;DHT22;1244;54.326;10.074;2023-03-01T06:19:11;-0.10;99.90
2465;DHT22;1244;54.326;10.074;2023-03-01T06:21:48;-0.40;99.90
2465;DHT22;1244;54.326;10.074;2023-03-01T06:28:08;-0.20;99.90
2465;DHT22;1244;54.326;10.074;2023-03-01T06:31:02;-0.20;99.90
2465;DHT22;1244;54.326;10.074;2023-03-01T06:33:52;-0.10;99.90
2465;DHT22;1244;54.326;10.074;2023-03-01T06:36:31;-0.10;99.90
2465;DHT22;1244;54.326;10.074;2023-03-01T06:39:04;-0.20;99.90
2465;DHT22;1244;54.326;10.074;2023-03-01T06:41:31;-0.20;99.90
2465;DHT22;1244;54.326;10.074;2023-03-01T06:43:59;-0.30;99.90
2465;DHT22;1244;54.326;10.074;2023-03-01T06:46:24;-0.10;99.90
2465;DHT22;1244;54.326;10.074;2023-03-01T06:48:50;0.10;99.90
2465;DHT22;1244;54.326;10.074;2023-03-01T06:51:15;0.00;99.90
2465;DHT22;1244;54.326;10.074;2023-03-01T06:53:41;-0.10;99.90
2465;DHT22;1244;54.326;10.074;2023-03-01T06:56:14;0.10;99.90
2465;DHT22;1244;54.326;10.074;2023-03-01T06:58:48;-0.10;99.90
2465;DHT22;1244;54.326;10.074;2023-03-01T07:01:33;-0.20;99.90
2465;DHT22;1244;54.326;10.074;2023-03-01T07:04:19;0.00;99.90
2465;DHT22;1244;54.326;10.074;2023-03-01T07:06:45;0.10;99.90
2465;DHT22;1244;54.326;10.074;2023-03-01T07:09:10;0.10;99.90
2465;DHT22;1244;54.326;10.074;2023-03-01T07:11:36;0.20;99.90
2465;DHT22;1244;54.326;10.074;2023-03-01T07:14:34;-0.10;99.90
2465;DHT22;1244;54.326;10.074;2023-03-01T07:26:58;-0.30;99.90
2465;DHT22;1244;54.326;10.074;2023-03-01T07:29:44;0.00;99.90
2465;DHT22;1244;54.326;10.074;2023-03-01T07:32:30;0.00;99.90
2465;DHT22;1244;54.326;10.074;2023-03-01T07:35:26;0.20;99.90
2465;DHT22;1244;54.326;10.074;2023-03-01T07:38:01;0.00;99.90
2465;DHT22;1244;54.326;10.074;2023-03-01T07:40:27;-0.10;99.90
2465;DHT22;1244;54.326;10.074;2023-03-01T07:46:17;0.00;99.90
2465;DHT22;1244;54.326;10.074;2023-03-01T07:48:44;0.60;99.90
2465;DHT22;1244;54.326;10.074;2023-03-01T07:51:09;0.50;99.90
2465;DHT22;1244;54.326;10.074;2023-03-01T07:53:35;0.70;99.90
2465;DHT22;1244;54.326;10.074;2023-03-01T07:56:12;0.60;99.90
2465;DHT22;1244;54.326;10.074;2023-03-01T07:58:40;0.80;99.90
2465;DHT22;1244;54.326;10.074;2023-03-01T08:01:11;0.70;99.90
2465;DHT22;1244;54.326;10.074;2023-03-01T08:03:38;0.80;99.90
2465;DHT22;1244;54.326;10.074;2023-03-01T08:06:05;0.60;99.90
2465;DHT22;1244;54.326;10.074;2023-03-01T08:08:31;0.50;99.90
2465;DHT22;1244;54.326;10.074;2023-03-01T08:11:01;0.50;99.90
2465;DHT22;1244;54.326;10.074;2023-03-01T08:13:28;0.70;99.90
2465;DHT22;1244;54.326;10.074;2023-03-01T08:15:53;1.00;99.90
2465;DHT22;1244;54.326;10.074;2023-03-01T08:18:20;0.90;99.90
2465;DHT22;1244;54.326;10.074;2023-03-01T08:20:46;0.80;99.90
2465;DHT22;1244;54.326;10.074;2023-03-01T08:23:12;0.80;99.90
2465;DHT22;1244;54.326;10.074;2023-03-01T08:25:38;0.80;99.90
2465;DHT22;1244;54.326;10.074;2023-03-01T08:28:04;1.00;99.90
2465;DHT22;1244;54.326;10.074;2023-03-01T08:30:30;1.20;99.90
2465;DHT22;1244;54.326;10.074;2023-03-01T08:32:55;1.00;99.90
2465;DHT22;1244;54.326;10.074;2023-03-01T08:35:21;1.20;99.90
2465;DHT22;1244;54.326;10.074;2023-03-01T08:37:47;1.10;99.90
2465;DHT22;1244;54.326;10.074;2023-03-01T08:40:13;1.30;99.90
2465;DHT22;1244;54.326;10.074;2023-03-01T08:42:40;1.40;99.90
2465;DHT22;1244;54.326;10.074;2023-03-01T08:45:06;1.40;99.90
2465;DHT22;1244;54.326;10.074;2023-03-01T08:47:32;1.30;99.90
2465;DHT22;1244;54.326;10.074;2023-03-01T08:50:00;1.40;99.90
2465;DHT22;1244;54.326;10.074;2023-03-01T08:52:26;1.30;99.90
2465;DHT22;1244;54.326;10.074;2023-03-01T08:54:52;1.20;99.90
2465;DHT22;1244;54.326;10.074;2023-03-01T08:57:18;1.10;99.90
2465;DHT22;1244;54.326;10.074;2023-03-01T08:59:43;1.10;99.90
2465;DHT22;1244;54.326;10.074;2023-03-01T09:02:14;1.20;99.90
2465;DHT22;1244;54.326;10.074;2023-03-01T09:04:40;1.30;99.90
2465;DHT22;1244;54.326;10.074;2023-03-01T09:07:06;0.90;99.90
2465;DHT22;1244;54.326;10.074;2023-03-01T09:09:32;0.70;99.90
2465;DHT22;1244;54.326;10.074;2023-03-01T09:11:57;1.00;99.90
2465;DHT22;1244;54.326;10.074;2023-03-01T09:14:23;1.30;99.90
2465;DHT22;1244;54.326;10.074;2023-03-01T09:16:49;0.90;99.90
2465;DHT22;1244;54.326;10.074;2023-03-01T09:19:15;1.10;99.90
2465;DHT22;1244;54.326;10.074;2023-03-01T09:21:41;1.30;99.90
2465;DHT22;1244;54.326;10.074;2023-03-01T09:24:17;1.30;99.90
2465;DHT22;1244;54.326;10.074;2023-03-01T09:26:43;1.30;99.90
2465;DHT22;1244;54.326;10.074;2023-03-01T09:29:11;1.30;99.90
2465;DHT22;1244;54.326;10.074;2023-03-01T09:31:37;1.20;99.90
2465;DHT22;1244;54.326;10.074;2023-03-01T09:34:02;1.30;99.90
2465;DHT22;1244;54.326;10.074;2023-03-01T09:36:28;1.50;99.90
2465;DHT22;1244;54.326;10.074;2023-03-01T09:38:53;1.40;99.90
2465;DHT22;1244;54.326;10.074;2023-03-01T09:42:05;1.50;99.90
2465;DHT22;1244;54.326;10.074;2023-03-01T09:46:55;1.20;99.90
2465;DHT22;1244;54.326;10.074;2023-03-01T09:49:25;1.10;99.90
2465;DHT22;1244;54.326;10.074;2023-03-01T09:54:40;1.70;99.90
2465;DHT22;1244;54.326;10.074;2023-03-01T09:57:19;1.80;99.90
2465;DHT22;1244;54.326;10.074;2023-03-01T09:59:52;1.90;99.90
2465;DHT22;1244;54.326;10.074;2023-03-01T10:02:37;1.40;99.90
2465;DHT22;1244;54.326;10.074;2023-03-01T10:05:05;2.00;99.90
2465;DHT22;1244;54.326;10.074;2023-03-01T10:10:32;2.20;99.90
2465;DHT22;1244;54.326;10.074;2023-03-01T10:13:01;2.30;99.90
2465;DHT22;1244;54.326;10.074;2023-03-01T10:15:39;2.40;99.90
2465;DHT22;1244;54.326;10.074;2023-03-01T10:18:14;2.40;99.90
2465;DHT22;1244;54.326;10.074;2023-03-01T10:21:02;2.10;99.90
2465;DHT22;1244;54.326;10.074;2023-03-01T10:23:32;2.10;99.90
2465;DHT22;1244;54.326;10.074;2023-03-01T10:26:12;2.20;99.90
2465;DHT22;1244;54.326;10.074;2023-03-01T10:29:06;1.90;99.90
2465;DHT22;1244;54.326;10.074;2023-03-01T10:31:49;2.30;99.90
2465;DHT22;1244;54.326;10.074;2023-03-01T10:34:21;2.30;99.90
2465;DHT22;1244;54.326;10.074;2023-03-01T10:36:50;2.20;99.90
2465;DHT22;1244;54.326;10.074;2023-03-01T10:39:18;1.90;99.90
2465;DHT22;1244;54.326;10.074;2023-03-01T10:42:02;1.60;99.90
2465;DHT22;1244;54.326;10.074;2023-03-01T10:44:46;2.20;99.90
2465;DHT22;1244;54.326;10.074;2023-03-01T10:47:18;2.30;99.90
2465;DHT22;1244;54.326;10.074;2023-03-01T10:49:53;2.50;99.90
2465;DHT22;1244;54.326;10.074;2023-03-01T10:52:21;2.30;99.90
2465;DHT22;1244;54.326;10.074;2023-03-01T10:54:58;1.90;99.90
2465;DHT22;1244;54.326;10.074;2023-03-01T10:57:31;2.50;99.90
2465;DHT22;1244;54.326;10.074;2023-03-01T11:00:13;2.30;99.90
2465;DHT22;1244;54.326;10.074;2023-03-01T11:02:42;2.60;99.90
2465;DHT22;1244;54.326;10.074;2023-03-01T11:05:20;2.70;99.90
2465;DHT22;1244;54.326;10.074;2023-03-01T11:07:51;2.80;99.90
2465;DHT22;1244;54.326;10.074;2023-03-01T11:10:29;3.10;99.90
2465;DHT22;1244;54.326;10.074;2023-03-01T11:13:18;2.90;99.90
2465;DHT22;1244;54.326;10.074;2023-03-01T11:16:08;2.60;99.90
2465;DHT22;1244;54.326;10.074;2023-03-01T11:18:35;2.50;99.90
2465;DHT22;1244;54.326;10.074;2023-03-01T11:21:01;2.60;99.90
2465;DHT22;1244;54.326;10.074;2023-03-01T11:23:28;2.80;99.90
2465;DHT22;1244;54.326;10.074;2023-03-01T11:26:05;2.80;99.90
2465;DHT22;1244;54.326;10.074;2023-03-01T11:28:33;2.50;99.90
2465;DHT22;1244;54.326;10.074;2023-03-01T11:31:09;2.40;99.90
2465;DHT22;1244;54.326;10.074;2023-03-01T11:36:50;2.70;99.90
2465;DHT22;1244;54.326;10.074;2023-03-01T11:39:25;3.00;99.90
2465;DHT22;1244;54.326;10.074;2023-03-01T11:42:10;2.80;99.90
2465;DHT22;1244;54.326;10.074;2023-03-01T11:44:37;2.70;99.90
2465;DHT22;1244;54.326;10.074;2023-03-01T11:52:48;2.80;99.90
2465;DHT22;1244;54.326;10.074;2023-03-01T12:05:59;2.60;99.90
2465;DHT22;1244;54.326;10.074;2023-03-01T12:09:03;2.80;99.90
2465;DHT22;1244;54.326;10.074;2023-03-01T12:14:38;3.10;99.90
2465;DHT22;1244;54.326;10.074;2023-03-01T12:17:46;3.50;99.90
2465;DHT22;1244;54.326;10.074;2023-03-01T12:23:35;3.50;99.90
2465;DHT22;1244;54.326;10.074;2023-03-01T12:26:10;3.20;99.90
2465;DHT22;1244;54.326;10.074;2023-03-01T12:28:52;3.20;99.90
2465;DHT22;1244;54.326;10.074;2023-03-01T12:34:37;2.90;99.90
2465;DHT22;1244;54.326;10.074;2023-03-01T12:46:01;2.80;99.90
2465;DHT22;1244;54.326;10.074;2023-03-01T12:49:08;3.30;99.90
2465;DHT22;1244;54.326;10.074;2023-03-01T12:51:38;3.00;99.90
2465;DHT22;1244;54.326;10.074;2023-03-01T12:54:14;3.30;99.90
2465;DHT22;1244;54.326;10.074;2023-03-01T12:56:40;3.10;99.90
2465;DHT22;1244;54.326;10.074;2023-03-01T12:59:39;3.30;99.90
2465;DHT22;1244;54.326;10.074;2023-03-01T13:04:53;3.10;99.90
2465;DHT22;1244;54.326;10.074;2023-03-01T13:10:11;3.40;99.90
2465;DHT22;1244;54.326;10.074;2023-03-01T13:15:25;2.70;99.90
2465;DHT22;1244;54.326;10.074;2023-03-01T13:17:55;3.00;99.90
2465;DHT22;1244;54.326;10.074;2023-03-01T13:20:45;2.70;99.90
2465;DHT22;1244;54.326;10.074;2023-03-01T13:23:26;2.80;99.90
2465;DHT22;1244;54.326;10.074;2023-03-01T13:33:49;3.20;99.90
2465;DHT22;1244;54.326;10.074;2023-03-01T13:39:26;3.00;99.90
2465;DHT22;1244;54.326;10.074;2023-03-01T13:41:55;3.30;99.90
2465;DHT22;1244;54.326;10.074;2023-03-01T13:46:53;2.90;99.90
2465;DHT22;1244;54.326;10.074;2023-03-01T13:49:41;3.20;99.90
2465;DHT22;1244;54.326;10.074;2023-03-01T13:55:21;3.00;99.90
2465;DHT22;1244;54.326;10.074;2023-03-01T13:57:57;3.00;99.90
2465;DHT22;1244;54.326;10.074;2023-03-01T14:05:36;3.00;99.90
2465;DHT22;1244;54.326;10.074;2023-03-01T14:08:13;2.80;99.90
2465;DHT22;1244;54.326;10.074;2023-03-01T14:19:21;2.90;99.90
2465;DHT22;1244;54.326;10.074;2023-03-01T14:22:04;2.70;99.90
2465;DHT22;1244;54.326;10.074;2023-03-01T14:24:35;2.60;99.90
2465;DHT22;1244;54.326;10.074;2023-03-01T14:27:02;2.80;99.90
2465;DHT22;1244;54.326;10.074;2023-03-01T14:29:35;2.50;99.90
2465;DHT22;1244;54.326;10.074;2023-03-01T14:32:25;2.70;99.90
2465;DHT22;1244;54.326;10.074;2023-03-01T14:34:51;2.70;99.90
2465;DHT22;1244;54.326;10.074;2023-03-01T14:37:20;2.50;99.90
2465;DHT22;1244;54.326;10.074;2023-03-01T14:39:47;2.60;99.90
2465;DHT22;1244;54.326;10.074;2023-03-01T14:42:13;2.50;99.90
2465;DHT22;1244;54.326;10.074;2023-03-01T14:44:50;2.50;99.90
2465;DHT22;1244;54.326;10.074;2023-03-01T14:47:40;2.50;99.90
2465;DHT22;1244;54.326;10.074;2023-03-01T14:50:23;2.60;99.90
2465;DHT22;1244;54.326;10.074;2023-03-01T14:52:51;2.50;99.90
2465;DHT22;1244;54.326;10.074;2023-03-01T14:55:27;2.50;99.90
2465;DHT22;1244;54.326;10.074;2023-03-01T14:57:54;2.50;99.90
2465;DHT22;1244;54.326;10.074;2023-03-01T15:00:25;2.40;99.90
2465;DHT22;1244;54.326;10.074;2023-03-01T15:02:54;2.50;99.90
2465;DHT22;1244;54.326;10.074;2023-03-01T15:05:27;2.60;99.90
2465;DHT22;1244;54.326;10.074;2023-03-01T15:07:55;2.40;99.90
2465;DHT22;1244;54.326;10.074;2023-03-01T15:10:26;2.50;99.90
2465;DHT22;1244;54.326;10.074;2023-03-01T15:12:52;2.50;99.90
2465;DHT22;1244;54.326;10.074;2023-03-01T15:15:45;2.40;99.90
2465;DHT22;1244;54.326;10.074;2023-03-01T15:18:14;2.50;99.90
2465;DHT22;1244;54.326;10.074;2023-03-01T15:20:41;2.50;99.90
2465;DHT22;1244;54.326;10.074;2023-03-01T15:23:24;2.60;99.90
2465;DHT22;1244;54.326;10.074;2023-03-01T15:25:51;2.40;99.90
2465;DHT22;1244;54.326;10.074;2023-03-01T15:28:23;2.40;99.90
2465;DHT22;1244;54.326;10.074;2023-03-01T15:31:01;2.30;99.90
2465;DHT22;1244;54.326;10.074;2023-03-01T15:33:37;2.40;99.90
2465;DHT22;1244;54.326;10.074;2023-03-01T15:36:33;2.50;99.90
2465;DHT22;1244;54.326;10.074;2023-03-01T15:39:03;2.50;99.90
2465;DHT22;1244;54.326;10.074;2023-03-01T15:41:31;2.30;99.90
2465;DHT22;1244;54.326;10.074;2023-03-01T15:44:27;2.40;99.90
2465;DHT22;1244;54.326;10.074;2023-03-01T15:46:53;2.40;99.90
2465;DHT22;1244;54.326;10.074;2023-03-01T15:49:41;2.50;99.90
2465;DHT22;1244;54.326;10.074;2023-03-01T15:52:22;2.40;99.90
2465;DHT22;1244;54.326;10.074;2023-03-01T15:55:01;2.50;99.90
2465;DHT22;1244;54.326;10.074;2023-03-01T15:57:27;2.60;99.90
2465;DHT22;1244;54.326;10.074;2023-03-01T15:59:53;2.40;99.90
2465;DHT22;1244;54.326;10.074;2023-03-01T16:02:19;2.50;99.90
2465;DHT22;1244;54.326;10.074;2023-03-01T16:04:47;2.50;99.90
2465;DHT22;1244;54.326;10.074;2023-03-01T16:07:14;2.60;99.90
2465;DHT22;1244;54.326;10.074;2023-03-01T16:09:39;2.50;99.90
2465;DHT22;1244;54.326;10.074;2023-03-01T16:12:08;2.50;99.90
2465;DHT22;1244;54.326;10.074;2023-03-01T16:14:38;2.50;99.90
2465;DHT22;1244;54.326;10.074;2023-03-01T16:17:03;2.40;99.90
2465;DHT22;1244;54.326;10.074;2023-03-01T16:19:29;2.40;99.90
2465;DHT22;1244;54.326;10.074;2023-03-01T16:21:55;2.50;99.90
2465;DHT22;1244;54.326;10.074;2023-03-01T16:24:20;2.50;99.90
2465;DHT22;1244;54.326;10.074;2023-03-01T16:26:48;2.30;99.90
2465;DHT22;1244;54.326;10.074;2023-03-01T16:29:14;2.40;99.90
2465;DHT22;1244;54.326;10.074;2023-03-01T16:31:40;2.40;99.90
2465;DHT22;1244;54.326;10.074;2023-03-01T16:34:06;2.30;99.90
2465;DHT22;1244;54.326;10.074;2023-03-01T16:36:31;2.30;99.90
2465;DHT22;1244;54.326;10.074;2023-03-01T16:38:58;2.40;99.90
2465;DHT22;1244;54.326;10.074;2023-03-01T16:41:26;2.20;99.90
2465;DHT22;1244;54.326;10.074;2023-03-01T16:43:55;2.30;99.90
2465;DHT22;1244;54.326;10.074;2023-03-01T16:46:27;2.30;99.90
2465;DHT22;1244;54.326;10.074;2023-03-01T16:48:54;2.20;99.90
2465;DHT22;1244;54.326;10.074;2023-03-01T16:51:20;2.30;99.90
2465;DHT22;1244;54.326;10.074;2023-03-01T16:53:46;2.20;99.90
2465;DHT22;1244;54.326;10.074;2023-03-01T16:56:12;2.30;99.90
2465;DHT22;1244;54.326;10.074;2023-03-01T16:58:39;2.30;99.90
2465;DHT22;1244;54.326;10.074;2023-03-01T17:01:13;2.20;99.90
2465;DHT22;1244;54.326;10.074;2023-03-01T17:03:39;2.40;99.90
2465;DHT22;1244;54.326;10.074;2023-03-01T17:06:07;2.30;99.90
2465;DHT22;1244;54.326;10.074;2023-03-01T17:08:33;2.40;99.90
2465;DHT22;1244;54.326;10.074;2023-03-01T17:11:07;2.40;99.90
2465;DHT22;1244;54.326;10.074;2023-03-01T17:13:34;2.20;99.90
2465;DHT22;1244;54.326;10.074;2023-03-01T17:16:03;2.30;99.90
2465;DHT22;1244;54.326;10.074;2023-03-01T17:18:28;2.40;99.90
2465;DHT22;1244;54.326;10.074;2023-03-01T17:20:54;2.30;99.90
2465;DHT22;1244;54.326;10.074;2023-03-01T17:23:20;2.30;99.90
2465;DHT22;1244;54.326;10.074;2023-03-01T17:25:49;2.50;99.90
2465;DHT22;1244;54.326;10.074;2023-03-01T17:28:25;2.40;99.90
2465;DHT22;1244;54.326;10.074;2023-03-01T17:30:52;2.40;99.90
2465;DHT22;1244;54.326;10.074;2023-03-01T17:33:18;2.40;99.90
2465;DHT22;1244;54.326;10.074;2023-03-01T17:35:44;2.30;99.90
2465;DHT22;1244;54.326;10.074;2023-03-01T17:38:14;2.30;99.90
2465;DHT22;1244;54.326;10.074;2023-03-01T17:40:41;2.40;99.90
2465;DHT22;1244;54.326;10.074;2023-03-01T17:43:07;2.40;99.90
2465;DHT22;1244;54.326;10.074;2023-03-01T17:45:35;2.50;99.90
2465;DHT22;1244;54.326;10.074;2023-03-01T17:48:01;2.40;99.90
2465;DHT22;1244;54.326;10.074;2023-03-01T17:50:26;2.40;99.90
2465;DHT22;1244;54.326;10.074;2023-03-01T17:52:53;2.40;99.90
2465;DHT22;1244;54.326;10.074;2023-03-01T17:55:20;2.30;99.90
2465;DHT22;1244;54.326;10.074;2023-03-01T17:57:46;2.30;99.90
2465;DHT22;1244;54.326;10.074;2023-03-01T18:00:13;2.40;99.90
2465;DHT22;1244;54.326;10.074;2023-03-01T18:02:39;2.40;99.90
2465;DHT22;1244;54.326;10.074;2023-03-01T18:05:05;2.30;99.90
2465;DHT22;1244;54.326;10.074;2023-03-01T18:07:31;2.40;99.90
2465;DHT22;1244;54.326;10.074;2023-03-01T18:09:56;2.20;99.90
2465;DHT22;1244;54.326;10.074;2023-03-01T18:12:23;2.30;99.90
2465;DHT22;1244;54.326;10.074;2023-03-01T18:14:49;2.30;99.90
2465;DHT22;1244;54.326;10.074;2023-03-01T18:17:19;2.20;99.90
2465;DHT22;1244;54.326;10.074;2023-03-01T18:19:44;2.20;99.90
2465;DHT22;1244;54.326;10.074;2023-03-01T18:22:10;2.30;99.90
2465;DHT22;1244;54.326;10.074;2023-03-01T18:24:36;2.30;99.90
2465;DHT22;1244;54.326;10.074;2023-03-01T18:27:04;2.40;99.90
2465;DHT22;1244;54.326;10.074;2023-03-01T18:29:29;2.30;99.90
2465;DHT22;1244;54.326;10.074;2023-03-01T18:31:55;2.30;99.90
2465;DHT22;1244;54.326;10.074;2023-03-01T18:34:20;2.40;99.90
2465;DHT22;1244;54.326;10.074;2023-03-01T18:36:47;2.50;99.90
2465;DHT22;1244;54.326;10.074;2023-03-01T18:39:13;2.50;99.90
2465;DHT22;1244;54.326;10.074;2023-03-01T18:41:39;2.30;99.90
2465;DHT22;1244;54.326;10.074;2023-03-01T18:44:06;2.40;99.90
2465;DHT22;1244;54.326;10.074;2023-03-01T18:46:36;2.40;99.90
2465;DHT22;1244;54.326;10.074;2023-03-01T18:49:03;2.40;99.90
2465;DHT22;1244;54.326;10.074;2023-03-01T18:51:29;2.30;99.90
2465;DHT22;1244;54.326;10.074;2023-03-01T18:53:56;2.30;99.90
2465;DHT22;1244;54.326;10.074;2023-03-01T18:56:23;2.10;99.90
2465;DHT22;1244;54.326;10.074;2023-03-01T18:58:49;2.20;99.90